Time;durP1;ratioP1;P1;durP2;ratioP2;P2;SDS_P1;SDS_P2;PMS_P1;PMS_P2;Temp;Humidity;BMP_temperature;BMP_pressure;BME280_temperature;BME280_humidity;BME280_pressure;Samples;Min_cycle;Max_cycle;Signal;HPM_P1;HPM_P2
2023/10/07 00:02:15;;;;;;;3.03;1.60;;;18.60;90.70;;;;;;4974442;28;20026;-82
2023/10/07 00:04:41;;;;;;;4.72;1.70;;;18.60;90.70;;;;;;4974493;28;20034;-81
2023/10/07 00:07:11;;;;;;;4.03;2.00;;;18.50;90.60;;;;;;4974536;28;20054;-81
2023/10/07 00:09:40;;;;;;;3.08;1.48;;;18.60;90.60;;;;;;4974279;28;20065;-81
2023/10/07 00:12:05;;;;;;;3.25;1.40;;;18.50;90.90;;;;;;4957649;28;20066;-81
2023/10/07 00:14:31;;;;;;;5.03;1.80;;;18.50;90.60;;;;;;4954890;29;20027;-81
2023/10/07 00:17:05;;;;;;;3.70;1.50;;;18.50;90.60;;;;;;4973973;28;20436;-82
2023/10/07 00:19:33;;;;;;;4.50;1.73;;;18.50;90.70;;;;;;4974057;28;20023;-82
2023/10/07 00:21:59;;;;;;;3.13;1.70;;;18.50;90.70;;;;;;4975329;28;20054;-81
2023/10/07 00:24:26;;;;;;;4.10;1.70;;;18.50;90.70;;;;;;4974084;28;20054;-81
2023/10/07 00:26:59;;;;;;;2.92;1.42;;;18.50;90.70;;;;;;4975350;28;20114;-81
2023/10/07 00:29:25;;;;;;;3.95;1.70;;;18.50;90.70;;;;;;4975147;28;20027;-81
2023/10/07 00:31:52;;;;;;;3.47;1.50;;;18.50;90.70;;;;;;4975293;28;20481;-81
2023/10/07 00:34:26;;;;;;;3.50;1.80;;;18.50;90.70;;;;;;4973876;28;20027;-81
2023/10/07 00:36:56;;;;;;;3.40;1.40;;;18.50;90.70;;;;;;4973843;28;20027;-81
2023/10/07 00:39:22;;;;;;;2.55;1.30;;;18.50;90.80;;;;;;4973590;28;20019;-81
2023/10/07 00:41:51;;;;;;;2.58;1.45;;;18.50;90.80;;;;;;4973815;28;20118;-81
2023/10/07 00:44:23;;;;;;;3.72;1.70;;;18.50;90.70;;;;;;4973875;28;20030;-81
2023/10/07 00:47:26;;;;;;;3.30;1.58;;;18.50;90.70;;;;;;4973720;28;20082;-82
2023/10/07 00:52:24;;;;;;;3.28;1.60;;;18.60;90.80;;;;;;4975183;28;20113;-81
2023/10/07 00:54:51;;;;;;;3.22;1.40;;;18.50;90.70;;;;;;4973339;28;20023;-81
2023/10/07 00:57:24;;;;;;;3.22;1.50;;;18.60;90.70;;;;;;4974511;28;20077;-81
2023/10/07 00:59:51;;;;;;;3.63;1.63;;;18.60;90.70;;;;;;4973248;28;20034;-81
2023/10/07 01:02:29;;;;;;;4.20;1.67;;;18.50;90.70;;;;;;4973465;28;20027;-81
2023/10/07 01:05:06;;;;;;;5.20;1.73;;;18.50;90.70;;;;;;4973350;28;20113;-81
2023/10/07 01:07:34;;;;;;;3.08;1.63;;;18.50;90.70;;;;;;4973397;28;20444;-82
2023/10/07 01:10:06;;;;;;;4.03;1.92;;;18.50;90.70;;;;;;4972987;28;20038;-82
2023/10/07 01:12:39;;;;;;;4.30;1.85;;;18.50;90.70;;;;;;4973304;28;20037;-81
2023/10/07 01:15:13;;;;;;;4.35;1.70;;;18.50;90.70;;;;;;4973005;28;20284;-81
2023/10/07 01:17:41;;;;;;;6.40;1.75;;;18.50;90.70;;;;;;4973212;28;20090;-81
2023/10/07 01:20:08;;;;;;;5.20;2.33;;;18.50;90.80;;;;;;4973061;28;20034;-81
2023/10/07 01:22:36;;;;;;;4.50;1.80;;;18.50;90.70;;;;;;4973277;28;20099;-81
2023/10/07 01:25:09;;;;;;;4.38;1.67;;;18.40;90.70;;;;;;4973097;28;20101;-81
2023/10/07 01:27:42;;;;;;;3.72;1.63;;;18.50;90.80;;;;;;4973246;28;20026;-82
2023/10/07 01:30:16;;;;;;;2.90;1.40;;;18.40;90.80;;;;;;4972811;28;20033;-81
2023/10/07 01:32:49;;;;;;;3.97;1.70;;;18.50;90.80;;;;;;4972965;28;20035;-82
2023/10/07 01:35:25;;;;;;;4.93;2.03;;;18.50;90.80;;;;;;4973989;28;20474;-81
2023/10/07 01:37:59;;;;;;;4.25;1.90;;;18.40;90.80;;;;;;4973876;28;20023;-81
2023/10/07 01:40:53;;;;;;;4.00;1.50;;;18.40;90.80;;;;;;4972812;28;20023;-81
2023/10/07 01:43:13;;;;;;;3.40;1.50;;;18.50;90.80;;;;;;4973841;28;20027;-81
2023/10/07 01:45:39;;;;;;;4.20;1.60;;;18.40;90.80;;;;;;4973906;28;20031;-81
2023/10/07 01:48:08;;;;;;;3.75;1.75;;;18.50;90.80;;;;;;4972441;28;20464;-81
2023/10/07 01:50:40;;;;;;;2.63;1.38;;;18.50;90.80;;;;;;4974155;28;20543;-82
2023/10/07 01:53:07;;;;;;;3.70;1.58;;;18.50;90.80;;;;;;4972744;28;20054;-81
2023/10/07 01:55:42;;;;;;;4.47;1.90;;;18.50;90.70;;;;;;4972609;28;20035;-82
2023/10/07 01:58:10;;;;;;;3.75;1.60;;;18.50;90.70;;;;;;4973820;28;20046;-81
2023/10/07 02:00:46;;;;;;;3.15;1.50;;;18.50;90.70;;;;;;4973741;28;20042;-81
2023/10/07 02:03:13;;;;;;;3.45;1.48;;;18.50;90.80;;;;;;4972590;28;20034;-81
2023/10/07 02:05:48;;;;;;;6.32;1.70;;;18.50;90.80;;;;;;4972623;28;20037;-82
2023/10/07 02:08:18;;;;;;;4.43;1.65;;;18.50;90.80;;;;;;4972366;28;20097;-81
2023/10/07 02:10:45;;;;;;;4.10;1.90;;;18.50;90.80;;;;;;4973711;28;20027;-81
2023/10/07 02:13:14;;;;;;;3.75;1.52;;;18.50;90.80;;;;;;4972523;28;20169;-81
2023/10/07 02:15:43;;;;;;;2.95;1.30;;;18.50;90.80;;;;;;4972450;28;20039;-81
2023/10/07 02:18:15;;;;;;;3.80;1.50;;;18.40;90.80;;;;;;4973446;28;20050;-81
2023/10/07 02:20:43;;;;;;;3.33;1.60;;;18.40;90.80;;;;;;4973595;28;20031;-81
2023/10/07 02:23:12;;;;;;;3.00;1.58;;;18.50;91.10;;;;;;4972467;28;20022;-81
2023/10/07 02:25:40;;;;;;;4.40;1.60;;;18.50;90.80;;;;;;4972359;28;20183;-81
2023/10/07 02:28:06;;;;;;;3.03;1.52;;;18.40;90.80;;;;;;4973429;28;20240;-81
2023/10/07 02:30:51;;;;;;;3.60;1.75;;;18.40;90.80;;;;;;4972239;28;20396;-81
2023/10/07 02:33:21;;;;;;;3.53;1.58;;;18.40;90.80;;;;;;4973564;28;20535;-81
2023/10/07 02:35:54;;;;;;;2.15;1.40;;;18.40;90.80;;;;;;4972298;28;20035;-81
2023/10/07 02:38:24;;;;;;;4.22;1.60;;;18.50;90.90;;;;;;4972079;28;20031;-81
2023/10/07 02:40:51;;;;;;;3.13;1.60;;;18.40;90.80;;;;;;4972317;28;20109;-81
2023/10/07 02:43:16;;;;;;;3.53;1.60;;;18.40;90.90;;;;;;4972170;28;20027;-81
2023/10/07 02:45:42;;;;;;;3.10;1.60;;;18.50;90.90;;;;;;4973321;28;20037;-81
2023/10/07 02:48:11;;;;;;;3.22;1.55;;;18.50;90.90;;;;;;4972075;28;20051;-81
2023/10/07 02:50:42;;;;;;;4.05;1.50;;;18.40;90.90;;;;;;4970840;28;20031;-81
2023/10/07 02:53:14;;;;;;;3.13;1.50;;;18.50;90.80;;;;;;4965454;28;20031;-81
2023/10/07 02:55:58;;;;;;;3.38;1.58;;;18.50;90.80;;;;;;4952823;28;20055;-81
2023/10/07 02:58:51;;;;;;;2.97;1.52;;;18.50;90.80;;;;;;4952586;29;20030;-81
2023/10/07 03:01:17;;;;;;;3.00;1.52;;;18.50;90.80;;;;;;4953798;28;20114;-81
2023/10/07 03:03:48;;;;;;;3.72;1.70;;;18.50;90.80;;;;;;4952803;28;20024;-81
2023/10/07 03:06:17;;;;;;;3.25;1.48;;;18.50;91.10;;;;;;4953967;29;20023;-81
2023/10/07 03:08:50;;;;;;;3.15;1.30;;;18.40;90.80;;;;;;4952460;29;20438;-81
2023/10/07 03:11:23;;;;;;;2.97;1.45;;;18.40;90.80;;;;;;4952945;28;20102;-82
2023/10/07 03:13:50;;;;;;;3.10;1.60;;;18.40;90.80;;;;;;4956940;29;20078;-81
2023/10/07 03:19:06;;;;;;;2.88;1.50;;;18.40;90.90;;;;;;4957283;29;20055;-81
2023/10/07 03:21:55;;;;;;;4.53;1.65;;;18.40;90.90;;;;;;4957282;29;20529;-81
2023/10/07 03:24:41;;;;;;;3.30;1.50;;;18.40;90.90;;;;;;4957219;29;20050;-82
2023/10/07 03:27:21;;;;;;;4.45;1.85;;;18.40;90.90;;;;;;4957161;29;20027;-82
2023/10/07 03:29:59;;;;;;;3.10;1.45;;;18.40;90.90;;;;;;4955851;28;20035;-82
2023/10/07 03:32:32;;;;;;;2.97;1.67;;;18.40;90.90;;;;;;4957142;29;20135;-81
2023/10/07 03:34:58;;;;;;;3.35;1.52;;;18.40;90.90;;;;;;4955638;29;20035;-81
2023/10/07 03:37:25;;;;;;;3.42;1.80;;;18.40;90.90;;;;;;4955789;29;20074;-81
2023/10/07 03:40:25;;;;;;;2.75;1.52;;;18.40;90.90;;;;;;4955391;29;20482;-81
2023/10/07 03:42:42;;;;;;;3.40;1.70;;;18.40;90.90;;;;;;4956627;29;20066;-81
2023/10/07 03:45:14;;;;;;;3.63;1.60;;;18.40;90.90;;;;;;4955606;29;20051;-81
2023/10/07 03:47:41;;;;;;;3.80;1.65;;;18.40;90.90;;;;;;4955606;29;20035;-81
2023/10/07 03:50:24;;;;;;;3.67;1.60;;;18.40;90.90;;;;;;4955342;28;20390;-81
2023/10/07 03:52:50;;;;;;;3.50;1.65;;;18.40;90.90;;;;;;4955670;28;20379;-81
2023/10/07 03:55:15;;;;;;;4.00;1.48;;;18.40;90.90;;;;;;4955278;29;20096;-81
2023/10/07 03:57:42;;;;;;;3.13;1.40;;;18.40;90.80;;;;;;4956510;29;20393;-80
2023/10/07 04:00:11;;;;;;;3.20;1.70;;;18.40;90.80;;;;;;4955043;28;20016;-81
2023/10/07 04:02:36;;;;;;;3.20;1.65;;;18.40;90.90;;;;;;4955382;29;20027;-81
2023/10/07 04:05:12;;;;;;;2.45;1.50;;;18.40;90.90;;;;;;4956432;29;20038;-81
2023/10/07 04:07:39;;;;;;;2.88;1.60;;;18.40;90.90;;;;;;4955166;29;20026;-81
2023/10/07 04:10:43;;;;;;;2.70;1.52;;;18.50;90.90;;;;;;4954963;28;20589;-81
2023/10/07 04:12:57;;;;;;;3.80;1.80;;;18.40;90.90;;;;;;4955060;28;20178;-81
2023/10/07 04:15:34;;;;;;;4.00;1.83;;;18.40;90.90;;;;;;4954957;28;20027;-81
2023/10/07 04:18:00;;;;;;;3.90;1.77;;;18.40;90.90;;;;;;4955978;29;20046;-81
2023/10/07 04:20:42;;;;;;;4.35;1.38;;;18.40;90.90;;;;;;4954909;29;20498;-81
2023/10/07 04:23:08;;;;;;;4.15;1.40;;;18.40;90.90;;;;;;4954579;28;20027;-82
2023/10/07 04:25:43;;;;;;;3.53;1.70;;;18.40;90.90;;;;;;4954436;28;20023;-81
2023/10/07 04:28:13;;;;;;;3.45;1.70;;;18.40;90.90;;;;;;4954579;28;20086;-82
2023/10/07 04:30:39;;;;;;;3.15;1.60;;;18.40;90.90;;;;;;4954780;29;20078;-81
2023/10/07 04:33:10;;;;;;;3.42;1.60;;;18.40;90.90;;;;;;4954667;28;20031;-82
2023/10/07 04:35:37;;;;;;;3.95;1.70;;;18.40;90.90;;;;;;4954516;29;20027;-81
2023/10/07 04:38:10;;;;;;;3.30;1.60;;;18.40;90.90;;;;;;4955632;29;20027;-81
2023/10/07 04:43:36;;;;;;;2.80;1.55;;;18.40;91.20;;;;;;4945778;29;20062;-81
2023/10/07 04:46:06;;;;;;;3.42;1.60;;;18.40;91.00;;;;;;4955741;29;20026;-81
2023/10/07 04:48:54;;;;;;;4.43;1.70;;;18.40;91.00;;;;;;4954317;28;20065;-82
2023/10/07 04:51:24;;;;;;;3.53;1.80;;;18.40;91.00;;;;;;4962581;28;20081;-81
2023/10/07 04:53:57;;;;;;;3.67;1.73;;;18.40;91.00;;;;;;4966909;28;20109;-81
2023/10/07 04:56:25;;;;;;;3.05;1.55;;;18.40;91.20;;;;;;4975104;28;20760;-81
2023/10/07 04:58:54;;;;;;;3.10;1.60;;;18.40;90.90;;;;;;4973316;28;20027;-82
2023/10/07 05:01:33;;;;;;;4.00;1.80;;;18.40;90.90;;;;;;4973609;28;20049;-81
2023/10/07 05:04:04;;;;;;;3.30;1.88;;;18.40;90.90;;;;;;4969948;28;20034;-81
2023/10/07 05:06:30;;;;;;;4.35;1.80;;;18.40;90.90;;;;;;4973349;28;20508;-81
2023/10/07 05:08:56;;;;;;;4.95;2.20;;;18.40;90.90;;;;;;4973002;28;20170;-81
2023/10/07 05:11:26;;;;;;;4.40;1.90;;;18.40;90.80;;;;;;4973287;28;20496;-81
2023/10/07 05:13:52;;;;;;;4.95;2.30;;;18.40;90.90;;;;;;4973258;28;20153;-81
2023/10/07 05:16:19;;;;;;;3.47;1.77;;;18.40;90.90;;;;;;4974335;28;20027;-81
2023/10/07 05:18:45;;;;;;;4.85;1.92;;;18.40;90.90;;;;;;4974234;28;20037;-81
2023/10/07 05:21:11;;;;;;;3.55;1.63;;;18.40;90.90;;;;;;4973239;28;20019;-81
2023/10/07 05:23:37;;;;;;;7.13;1.95;;;18.30;90.90;;;;;;4972986;28;20374;-81
2023/10/07 05:26:03;;;;;;;2.83;1.60;;;18.40;91.00;;;;;;4970460;28;20064;-80
2023/10/07 05:28:32;;;;;;;3.50;1.73;;;18.40;91.00;;;;;;4968826;28;20039;-81
2023/10/07 05:31:00;;;;;;;3.20;1.63;;;18.30;90.90;;;;;;4969144;28;20117;-82
2023/10/07 05:33:27;;;;;;;3.85;1.85;;;18.40;91.00;;;;;;4964539;28;20097;-81
2023/10/07 05:36:11;;;;;;;3.90;1.77;;;18.40;91.00;;;;;;4969632;28;20062;-81
2023/10/07 05:38:38;;;;;;;3.08;1.63;;;18.40;91.00;;;;;;4969880;28;20504;-81
2023/10/07 05:41:06;;;;;;;4.80;1.90;;;18.40;91.00;;;;;;4956208;28;20027;-81
2023/10/07 05:43:33;;;;;;;3.95;1.60;;;18.40;91.00;;;;;;4952964;28;20111;-80
2023/10/07 05:45:59;;;;;;;3.20;1.60;;;18.30;91.00;;;;;;4950922;28;20039;-82
2023/10/07 05:48:25;;;;;;;2.95;1.73;;;18.30;91.00;;;;;;4950517;28;20031;-82
2023/10/07 05:50:54;;;;;;;4.18;1.90;;;18.40;91.00;;;;;;4951153;29;20027;-82
2023/10/07 05:53:20;;;;;;;3.30;1.67;;;18.40;91.00;;;;;;4950624;28;20519;-82
2023/10/07 05:55:47;;;;;;;3.97;2.00;;;18.40;91.00;;;;;;4950283;28;20035;-80
2023/10/07 05:58:14;;;;;;;4.18;1.90;;;18.40;91.00;;;;;;4950296;28;20054;-81
2023/10/07 06:00:40;;;;;;;3.95;1.95;;;18.40;90.90;;;;;;4950386;29;20023;-81
2023/10/07 06:03:06;;;;;;;3.65;1.85;;;18.40;90.90;;;;;;4952173;28;20032;-81
2023/10/07 06:05:38;;;;;;;3.35;1.70;;;18.40;91.00;;;;;;4950289;29;20027;-81
2023/10/07 06:08:10;;;;;;;3.85;2.00;;;18.40;91.00;;;;;;4950897;29;20031;-81
2023/10/07 06:10:37;;;;;;;3.67;1.90;;;18.40;91.00;;;;;;4950023;29;20393;-81
2023/10/07 06:13:08;;;;;;;4.25;1.85;;;18.40;91.00;;;;;;4959210;28;20037;-81
2023/10/07 06:15:35;;;;;;;4.03;1.98;;;18.40;91.00;;;;;;4961117;28;20672;-81
2023/10/07 06:18:01;;;;;;;3.15;1.80;;;18.40;91.00;;;;;;4952244;28;20490;-81
2023/10/07 06:20:26;;;;;;;3.47;1.80;;;18.30;91.00;;;;;;4952957;28;20042;-81
2023/10/07 06:23:38;;;;;;;4.97;2.05;;;18.30;91.00;;;;;;4970347;28;20110;-89
2023/10/07 06:26:09;;;;;;;3.75;1.88;;;18.40;91.00;;;;;;4962417;28;20038;-83
2023/10/07 06:28:35;;;;;;;3.83;2.17;;;18.30;91.00;;;;;;4956132;28;20041;-82
2023/10/07 06:31:11;;;;;;;4.30;2.20;;;18.30;91.00;;;;;;4964517;28;20034;-82
2023/10/07 06:33:41;;;;;;;4.25;2.20;;;18.30;91.00;;;;;;4969884;28;20031;-82
2023/10/07 06:36:10;;;;;;;4.38;2.28;;;18.30;91.10;;;;;;4962376;28;20039;-81
2023/10/07 06:38:37;;;;;;;3.95;2.10;;;18.30;91.10;;;;;;4966270;28;20478;-80
2023/10/07 06:41:10;;;;;;;3.83;2.08;;;18.30;91.10;;;;;;4963598;28;20078;-82
2023/10/07 06:43:42;;;;;;;3.30;1.77;;;18.30;91.10;;;;;;4950811;29;20046;-82
2023/10/07 06:46:11;;;;;;;4.78;2.20;;;18.30;91.10;;;;;;4952212;28;20035;-82
2023/10/07 06:48:37;;;;;;;4.47;2.10;;;18.30;91.10;;;;;;4967821;28;20119;-83
2023/10/07 06:51:03;;;;;;;4.03;2.15;;;18.30;91.10;;;;;;4954431;29;20031;-81
2023/10/07 06:53:30;;;;;;;3.22;1.85;;;18.30;91.00;;;;;;4964432;28;20089;-82
2023/10/07 06:55:58;;;;;;;4.20;1.85;;;18.30;91.00;;;;;;4958044;28;20050;-82
2023/10/07 06:58:25;;;;;;;4.78;2.20;;;18.40;91.00;;;;;;4954156;29;20027;-82
2023/10/07 07:01:05;;;;;;;4.38;2.17;;;18.40;91.00;;;;;;4954534;29;20019;-82
2023/10/07 07:03:32;;;;;;;4.18;1.90;;;18.40;91.00;;;;;;4957724;28;20114;-82
2023/10/07 07:05:57;;;;;;;4.13;2.00;;;18.40;91.00;;;;;;4967732;28;20038;-82
2023/10/07 07:08:22;;;;;;;5.55;2.10;;;18.40;91.10;;;;;;4964720;28;20027;-82
2023/10/07 07:10:50;;;;;;;4.40;2.22;;;18.40;91.10;;;;;;4953700;29;20031;-82
2023/10/07 07:13:22;;;;;;;4.22;2.30;;;18.40;91.10;;;;;;4970373;28;20026;-81
2023/10/07 07:15:58;;;;;;;4.15;2.20;;;18.30;91.00;;;;;;4973484;28;20031;-81
2023/10/07 07:18:26;;;;;;;3.63;1.90;;;18.30;91.00;;;;;;4966733;28;20093;-81
2023/10/07 07:23:25;;;;;;;4.47;2.47;;;18.30;91.00;;;;;;4962982;28;20493;-82
2023/10/07 07:28:30;;;;;;;4.40;2.53;;;18.30;91.10;;;;;;4962864;28;20023;-82
2023/10/07 07:30:57;;;;;;;3.80;2.20;;;18.30;91.10;;;;;;4973272;28;20031;-82
2023/10/07 07:33:29;;;;;;;4.28;2.40;;;18.30;91.10;;;;;;4972827;28;20039;-81
2023/10/07 07:35:57;;;;;;;4.78;2.80;;;18.30;91.10;;;;;;4972748;28;20039;-83
2023/10/07 07:38:26;;;;;;;4.60;2.60;;;18.30;91.10;;;;;;4974423;28;20106;-83
2023/10/07 07:41:05;;;;;;;4.90;2.65;;;18.30;91.10;;;;;;4972879;28;20050;-80
2023/10/07 07:43:38;;;;;;;4.22;2.47;;;18.30;91.10;;;;;;4972859;28;20018;-82
2023/10/07 07:48:43;;;;;;;4.65;2.50;;;18.30;91.20;;;;;;4973569;28;20018;-82
2023/10/07 07:51:09;;;;;;;3.70;2.22;;;18.30;91.20;;;;;;4972721;28;20505;-83
2023/10/07 07:53:35;;;;;;;4.60;2.55;;;18.30;91.10;;;;;;4972243;28;20386;-82
2023/10/07 07:56:02;;;;;;;4.35;2.42;;;18.30;91.10;;;;;;4972293;28;20037;-83
2023/10/07 07:58:27;;;;;;;3.90;2.28;;;18.30;91.10;;;;;;4972095;28;20022;-82
2023/10/07 08:01:01;;;;;;;5.53;2.60;;;18.40;91.10;;;;;;4972226;28;20030;-82
2023/10/07 08:03:26;;;;;;;5.03;2.42;;;18.40;91.10;;;;;;4973792;28;20034;-82
2023/10/07 08:05:53;;;;;;;5.20;2.55;;;18.40;91.10;;;;;;4972202;28;20034;-83
2023/10/07 08:08:24;;;;;;;5.30;2.90;;;18.30;91.10;;;;;;4972078;28;20065;-82
2023/10/07 08:10:54;;;;;;;5.25;2.55;;;18.40;91.10;;;;;;4973432;28;20031;-84
2023/10/07 08:13:23;;;;;;;4.45;2.45;;;18.40;91.10;;;;;;4972030;28;20133;-82
2023/10/07 08:15:52;;;;;;;5.32;2.80;;;18.30;91.10;;;;;;4971876;28;20409;-83
2023/10/07 08:18:22;;;;;;;5.28;2.75;;;18.30;91.10;;;;;;4971710;28;20084;-81
2023/10/07 08:20:56;;;;;;;5.30;2.50;;;18.30;91.10;;;;;;4973226;28;20027;-85
2023/10/07 08:23:28;;;;;;;5.75;2.95;;;18.30;91.10;;;;;;4973094;28;20046;-83
2023/10/07 08:26:22;;;;;;;5.47;3.08;;;18.30;91.10;;;;;;4972219;28;20030;-82
2023/10/07 08:28:46;;;;;;;5.82;2.83;;;18.30;91.20;;;;;;4972668;28;20034;-83
2023/10/07 08:31:19;;;;;;;5.38;3.10;;;18.30;91.20;;;;;;4971863;28;20030;-82
2023/10/07 08:33:55;;;;;;;4.93;2.95;;;18.30;91.20;;;;;;4971427;28;20057;-84
2023/10/07 08:36:29;;;;;;;5.38;3.20;;;18.30;91.20;;;;;;4964506;28;20523;-80
2023/10/07 08:38:58;;;;;;;5.63;2.95;;;18.30;91.20;;;;;;4965407;28;20123;-82
2023/10/07 08:41:27;;;;;;;5.38;3.20;;;18.30;91.20;;;;;;4954423;28;20019;-79
2023/10/07 08:44:17;;;;;;;6.78;3.08;;;18.30;91.20;;;;;;4972296;28;20854;-81
2023/10/07 08:46:49;;;;;;;6.00;3.47;;;18.30;91.20;;;;;;4971603;28;20038;-84
2023/10/07 08:49:16;;;;;;;5.32;2.78;;;18.30;91.20;;;;;;4970607;28;20583;-81
2023/10/07 08:51:43;;;;;;;6.10;3.30;;;18.30;91.20;;;;;;4970947;28;20055;-83
2023/10/07 08:54:25;;;;;;;6.43;3.28;;;18.30;91.20;;;;;;4972472;28;20030;-84
2023/10/07 08:56:57;;;;;;;6.40;3.50;;;18.30;91.20;;;;;;4971172;28;20509;-83
2023/10/07 08:59:30;;;;;;;5.35;3.03;;;18.30;91.20;;;;;;4973546;28;20031;-85
2023/10/07 09:02:00;;;;;;;5.45;3.28;;;18.30;91.10;;;;;;4973012;28;20034;-82
2023/10/07 09:04:31;;;;;;;5.68;3.35;;;18.40;91.20;;;;;;4974818;28;20026;-86
2023/10/07 09:07:00;;;;;;;5.78;3.58;;;18.40;91.10;;;;;;4968698;28;20800;-84
2023/10/07 09:09:38;;;;;;;5.35;3.38;;;18.40;91.10;;;;;;4952900;28;20141;-85
2023/10/07 09:12:11;;;;;;;6.38;3.20;;;18.30;91.10;;;;;;4954033;29;20035;-85
2023/10/07 09:14:40;;;;;;;7.15;3.38;;;18.40;91.10;;;;;;4954977;29;20092;-85
2023/10/07 09:17:09;;;;;;;6.40;3.28;;;18.40;91.20;;;;;;4955126;29;20026;-85
2023/10/07 09:19:36;;;;;;;6.43;4.40;;;18.40;91.20;;;;;;4952930;29;20027;-86
2023/10/07 09:22:10;;;;;;;7.43;4.60;;;18.30;91.10;;;;;;4952595;29;20082;-81
2023/10/07 09:24:41;;;;;;;6.35;4.20;;;18.30;91.10;;;;;;4955221;28;20393;-84
2023/10/07 09:27:11;;;;;;;14.25;7.28;;;18.40;91.20;;;;;;4974509;28;20122;-85
2023/10/07 09:29:37;;;;;;;26.17;11.82;;;18.30;91.10;;;;;;4973871;28;20073;-86
2023/10/07 09:32:16;;;;;;;26.55;12.65;;;18.30;90.80;;;;;;4973756;28;20035;-82
2023/10/07 09:34:42;;;;;;;36.00;14.63;;;18.30;90.70;;;;;;4970709;28;20074;-83
2023/10/07 09:37:20;;;;;;;28.00;13.10;;;18.30;90.70;;;;;;4970052;28;20027;-84
2023/10/07 09:40:08;;;;;;;26.05;14.43;;;18.30;90.70;;;;;;4970116;28;20130;-83
2023/10/07 09:42:36;;;;;;;25.10;13.23;;;18.30;90.70;;;;;;4970267;28;20050;-84
2023/10/07 09:47:42;;;;;;;30.50;12.35;;;18.30;90.80;;;;;;4971541;28;20374;-83
2023/10/07 09:50:25;;;;;;;21.05;11.93;;;18.30;90.90;;;;;;4969892;28;20054;-82
2023/10/07 09:53:14;;;;;;;18.70;11.07;;;18.40;90.90;;;;;;4969837;28;20457;-85
2023/10/07 09:55:58;;;;;;;19.17;10.85;;;18.40;90.80;;;;;;4969975;28;20114;-84
2023/10/07 09:58:59;;;;;;;19.05;10.90;;;18.40;90.80;;;;;;4970091;28;20062;-85
2023/10/07 10:01:38;;;;;;;15.13;10.75;;;18.50;90.70;;;;;;4970086;28;20070;-83
2023/10/07 10:04:12;;;;;;;16.52;10.43;;;18.50;90.70;;;;;;4971516;28;20027;-82
2023/10/07 10:06:47;;;;;;;15.95;10.38;;;18.50;90.60;;;;;;4969909;28;20029;-82
2023/10/07 10:09:14;;;;;;;14.85;10.40;;;18.50;90.60;;;;;;4969845;28;20031;-83
2023/10/07 10:16:57;;;;;;;16.58;10.52;;;18.50;90.80;;;;;;4971540;28;20070;-83
2023/10/07 10:20:12;;;;;;;17.92;10.63;;;18.50;90.80;;;;;;4969636;28;20026;-84
2023/10/07 10:22:24;;;;;;;19.25;10.55;;;18.40;90.80;;;;;;4970316;28;20103;-82
2023/10/07 10:24:57;;;;;;;16.08;10.82;;;18.50;90.80;;;;;;4973354;28;20039;-83
2023/10/07 10:27:25;;;;;;;15.90;9.80;;;18.50;90.80;;;;;;4975307;28;20027;-83
2023/10/07 10:30:06;;;;;;;16.98;10.63;;;18.50;90.80;;;;;;4974999;28;20035;-82
2023/10/07 10:32:36;;;;;;;17.30;10.40;;;18.50;90.80;;;;;;4973902;28;20440;-82
2023/10/07 10:35:07;;;;;;;16.17;9.57;;;18.50;90.80;;;;;;4973219;28;20058;-85
2023/10/07 10:37:34;;;;;;;14.50;8.83;;;18.60;90.80;;;;;;4973853;28;20113;-85
2023/10/07 10:40:12;;;;;;;12.07;9.45;;;18.60;90.70;;;;;;4973672;28;20273;-83
2023/10/07 10:42:42;;;;;;;12.93;9.02;;;18.60;90.70;;;;;;4974322;28;20065;-84
2023/10/07 10:45:21;;;;;;;13.70;9.10;;;18.70;90.70;;;;;;4973753;28;20030;-83
2023/10/07 10:47:52;;;;;;;14.05;9.45;;;18.70;90.70;;;;;;4973584;28;20038;-82
2023/10/07 10:50:23;;;;;;;13.77;9.70;;;18.70;90.60;;;;;;4973583;28;20027;-82
2023/10/07 10:52:54;;;;;;;13.77;9.30;;;18.80;90.60;;;;;;4972925;28;20037;-83
2023/10/07 10:55:19;;;;;;;16.30;9.47;;;18.80;90.50;;;;;;4970905;28;20023;-84
2023/10/07 10:57:45;;;;;;;11.70;8.75;;;18.80;90.50;;;;;;4953866;28;20366;-84
2023/10/07 11:00:22;;;;;;;12.70;8.85;;;18.80;90.50;;;;;;4953865;28;20429;-83
2023/10/07 11:02:54;;;;;;;13.30;8.57;;;18.90;90.40;;;;;;4953956;29;20497;-85
2023/10/07 11:05:25;;;;;;;13.90;8.77;;;18.90;90.40;;;;;;4955058;29;20106;-82
2023/10/07 11:07:51;;;;;;;10.43;7.78;;;18.90;90.40;;;;;;4953894;29;20034;-82
2023/10/07 11:10:24;;;;;;;14.25;8.88;;;18.90;90.40;;;;;;4953663;29;20061;-83
2023/10/07 11:12:52;;;;;;;10.23;8.07;;;18.90;90.50;;;;;;4953692;29;20039;-85
2023/10/07 11:15:29;;;;;;;13.05;7.95;;;18.90;90.50;;;;;;4953642;29;20031;-83
2023/10/07 11:18:11;;;;;;;10.77;8.20;;;18.80;90.50;;;;;;4953368;29;20034;-83
2023/10/07 11:20:39;;;;;;;12.05;8.02;;;18.80;90.60;;;;;;4953206;29;20051;-84
2023/10/07 11:23:06;;;;;;;10.98;7.80;;;18.80;90.60;;;;;;4953260;29;20031;-83
2023/10/07 11:26:08;;;;;;;11.00;7.90;;;18.80;90.60;;;;;;4954956;28;20113;-90
2023/10/07 11:28:33;;;;;;;12.02;8.25;;;18.80;90.60;;;;;;4971482;28;20042;-83
2023/10/07 11:31:00;;;;;;;11.13;7.53;;;18.90;90.70;;;;;;4972563;28;20043;-84
2023/10/07 11:33:25;;;;;;;12.00;7.32;;;18.90;90.70;;;;;;4971541;28;20030;-85
2023/10/07 11:36:02;;;;;;;10.40;7.38;;;18.80;90.70;;;;;;4972426;28;20037;-80
2023/10/07 11:38:29;;;;;;;11.73;7.70;;;18.80;90.70;;;;;;4972299;28;20719;-82
2023/10/07 11:40:55;;;;;;;11.50;7.55;;;18.80;90.80;;;;;;4973091;28;20431;-84
2023/10/07 11:43:21;;;;;;;11.57;7.30;;;18.80;90.80;;;;;;4972453;28;20027;-82
2023/10/07 11:45:48;;;;;;;9.93;6.93;;;18.70;90.70;;;;;;4972219;28;20124;-83
2023/10/07 11:48:13;;;;;;;15.82;7.13;;;18.70;90.70;;;;;;4972061;28;20027;-83
2023/10/07 11:50:39;;;;;;;14.38;7.40;;;18.80;90.60;;;;;;4973229;28;20027;-84
2023/10/07 11:53:05;;;;;;;14.45;6.85;;;18.80;90.60;;;;;;4972284;28;20050;-83
2023/10/07 11:55:31;;;;;;;13.85;7.22;;;18.80;90.50;;;;;;4972466;28;20026;-82
2023/10/07 11:58:00;;;;;;;11.90;7.30;;;18.90;90.50;;;;;;4972120;28;20054;-84
2023/10/07 12:00:34;;;;;;;12.20;7.32;;;18.80;90.50;;;;;;4972874;28;20026;-83
2023/10/07 12:03:04;;;;;;;12.35;6.82;;;18.80;90.50;;;;;;4972143;28;20035;-83
2023/10/07 12:05:32;;;;;;;13.35;6.95;;;18.80;90.50;;;;;;4971892;28;20069;-82
2023/10/07 12:08:01;;;;;;;11.00;7.00;;;18.80;90.50;;;;;;4972003;28;20054;-84
2023/10/07 12:10:33;;;;;;;11.75;6.97;;;18.80;90.60;;;;;;4967682;28;20031;-82
2023/10/07 12:12:59;;;;;;;14.48;7.10;;;18.80;90.60;;;;;;4952682;29;20084;-82
2023/10/07 12:15:25;;;;;;;10.73;6.20;;;18.80;90.70;;;;;;4952187;29;20031;-82
2023/10/07 12:17:51;;;;;;;12.18;6.57;;;18.80;90.70;;;;;;4954894;28;20028;-83
2023/10/07 12:20:19;;;;;;;10.93;6.40;;;18.80;90.70;;;;;;4967581;28;20113;-82
2023/10/07 12:22:46;;;;;;;10.85;6.03;;;18.80;90.90;;;;;;4952318;28;20110;-81
2023/10/07 12:25:16;;;;;;;10.88;5.97;;;18.80;90.70;;;;;;4953202;28;20035;-81
2023/10/07 12:27:49;;;;;;;11.55;6.38;;;18.80;90.70;;;;;;4970602;28;20441;-90
2023/10/07 12:30:29;;;;;;;10.43;6.00;;;18.80;90.70;;;;;;4971686;28;20041;-81
2023/10/07 12:32:55;;;;;;;10.13;5.93;;;18.70;90.70;;;;;;4971768;28;20033;-81
2023/10/07 12:35:21;;;;;;;8.85;6.00;;;18.00;90.50;;;;;;4971252;28;20046;-83
2023/10/07 12:37:53;;;;;;;8.85;5.70;;;18.70;90.70;;;;;;4971704;28;20054;-87
2023/10/07 12:40:21;;;;;;;10.23;6.00;;;18.70;90.80;;;;;;4969757;28;20031;-86
2023/10/07 12:42:52;;;;;;;10.65;6.30;;;18.70;90.80;;;;;;4966938;28;20035;-86
2023/10/07 12:45:18;;;;;;;11.70;6.47;;;18.90;90.90;;;;;;4970258;28;20683;-83
2023/10/07 12:47:44;;;;;;;8.70;5.72;;;18.70;90.70;;;;;;4952784;28;20035;-83
2023/10/07 12:52:49;;;;;;;8.95;5.25;;;18.80;90.70;;;;;;4972240;28;20022;-83
2023/10/07 12:55:16;;;;;;;9.00;5.40;;;18.80;90.60;;;;;;4970607;28;20033;-84
2023/10/07 12:57:42;;;;;;;9.90;5.47;;;18.80;90.60;;;;;;4970653;28;20033;-82
2023/10/07 13:00:22;;;;;;;12.00;5.70;;;18.80;90.70;;;;;;4971986;28;20533;-83
2023/10/07 13:02:51;;;;;;;8.48;5.40;;;18.80;90.70;;;;;;4970814;28;20396;-83
2023/10/07 13:05:20;;;;;;;8.57;4.85;;;18.70;90.70;;;;;;4970687;28;20030;-83
2023/10/07 13:07:47;;;;;;;8.68;5.53;;;18.70;90.70;;;;;;4970905;28;20040;-81
2023/10/07 13:10:13;;;;;;;8.00;5.05;;;18.70;90.70;;;;;;4971116;28;20473;-82
2023/10/07 13:12:39;;;;;;;9.73;5.00;;;18.70;90.70;;;;;;4970586;28;20118;-82
2023/10/07 13:15:14;;;;;;;8.68;4.93;;;18.70;90.80;;;;;;4970451;28;20026;-82
2023/10/07 13:17:45;;;;;;;8.45;5.07;;;18.70;90.80;;;;;;4970740;28;20035;-81
2023/10/07 13:20:23;;;;;;;7.38;5.07;;;18.70;90.80;;;;;;4970188;28;20027;-81
2023/10/07 13:22:49;;;;;;;8.30;4.53;;;18.70;90.80;;;;;;4971000;28;20041;-84
2023/10/07 13:25:17;;;;;;;7.63;5.00;;;18.70;90.80;;;;;;4970437;28;20037;-83
2023/10/07 13:27:43;;;;;;;8.48;4.93;;;18.70;90.80;;;;;;4970316;28;20031;-84
2023/10/07 13:30:12;;;;;;;7.95;4.80;;;18.70;90.80;;;;;;4970150;28;20027;-83